sensor_id;sensor_type;location;lat;lon;timestamp;P1;durP1;ratioP1;P2;durP2;ratioP2
76617;SDS011;65509;42.816;74.648;2023-06-05T00:02:04;19.75;;;4.30;;
76617;SDS011;65509;42.816;74.648;2023-06-05T00:04:29;17.48;;;3.38;;
76617;SDS011;65509;42.816;74.648;2023-06-05T00:06:55;28.17;;;4.28;;
76617;SDS011;65509;42.816;74.648;2023-06-05T00:09:22;23.45;;;4.38;;
76617;SDS011;65509;42.816;74.648;2023-06-05T00:11:48;22.50;;;4.10;;
76617;SDS011;65509;42.816;74.648;2023-06-05T00:14:13;28.48;;;4.68;;
76617;SDS011;65509;42.816;74.648;2023-06-05T00:16:39;22.02;;;4.35;;
76617;SDS011;65509;42.816;74.648;2023-06-05T00:19:04;21.13;;;4.10;;
76617;SDS011;65509;42.816;74.648;2023-06-05T00:21:30;24.63;;;4.38;;
76617;SDS011;65509;42.816;74.648;2023-06-05T00:23:55;19.60;;;3.50;;
76617;SDS011;65509;42.816;74.648;2023-06-05T00:26:21;23.60;;;4.30;;
76617;SDS011;65509;42.816;74.648;2023-06-05T00:28:46;15.18;;;3.65;;
76617;SDS011;65509;42.816;74.648;2023-06-05T00:31:12;28.65;;;4.28;;
76617;SDS011;65509;42.816;74.648;2023-06-05T00:33:44;23.38;;;3.85;;
76617;SDS011;65509;42.816;74.648;2023-06-05T00:36:09;30.45;;;4.65;;
76617;SDS011;65509;42.816;74.648;2023-06-05T00:38:36;29.35;;;4.95;;
76617;SDS011;65509;42.816;74.648;2023-06-05T00:41:02;23.70;;;3.97;;
76617;SDS011;65509;42.816;74.648;2023-06-05T00:43:27;20.75;;;3.80;;
76617;SDS011;65509;42.816;74.648;2023-06-05T00:45:55;21.95;;;3.70;;
76617;SDS011;65509;42.816;74.648;2023-06-05T00:48:22;34.78;;;5.50;;
76617;SDS011;65509;42.816;74.648;2023-06-05T00:50:47;21.38;;;3.63;;
76617;SDS011;65509;42.816;74.648;2023-06-05T00:53:13;24.83;;;4.15;;
76617;SDS011;65509;42.816;74.648;2023-06-05T00:55:38;21.45;;;3.75;;
76617;SDS011;65509;42.816;74.648;2023-06-05T00:58:04;23.85;;;4.45;;
76617;SDS011;65509;42.816;74.648;2023-06-05T01:00:30;22.90;;;4.13;;
76617;SDS011;65509;42.816;74.648;2023-06-05T01:02:55;17.60;;;3.92;;
76617;SDS011;65509;42.816;74.648;2023-06-05T01:05:23;47.40;;;6.30;;
76617;SDS011;65509;42.816;74.648;2023-06-05T01:07:49;27.80;;;4.32;;
76617;SDS011;65509;42.816;74.648;2023-06-05T01:10:15;36.53;;;5.20;;
76617;SDS011;65509;42.816;74.648;2023-06-05T01:15:12;35.85;;;5.40;;
76617;SDS011;65509;42.816;74.648;2023-06-05T01:17:37;28.08;;;4.80;;
76617;SDS011;65509;42.816;74.648;2023-06-05T01:20:07;17.42;;;3.83;;
76617;SDS011;65509;42.816;74.648;2023-06-05T01:25:21;34.10;;;5.22;;
76617;SDS011;65509;42.816;74.648;2023-06-05T01:33:04;38.08;;;5.78;;
76617;SDS011;65509;42.816;74.648;2023-06-05T01:35:32;31.00;;;5.03;;
76617;SDS011;65509;42.816;74.648;2023-06-05T01:38:00;37.13;;;5.68;;
76617;SDS011;65509;42.816;74.648;2023-06-05T01:40:28;34.85;;;6.25;;
76617;SDS011;65509;42.816;74.648;2023-06-05T01:42:54;19.77;;;3.75;;
76617;SDS011;65509;42.816;74.648;2023-06-05T01:45:20;32.08;;;5.03;;
76617;SDS011;65509;42.816;74.648;2023-06-05T01:47:49;24.70;;;4.50;;
76617;SDS011;65509;42.816;74.648;2023-06-05T01:50:15;37.40;;;5.63;;
76617;SDS011;65509;42.816;74.648;2023-06-05T01:52:43;25.40;;;4.25;;
76617;SDS011;65509;42.816;74.648;2023-06-05T01:55:17;32.45;;;5.28;;
76617;SDS011;65509;42.816;74.648;2023-06-05T01:57:45;23.35;;;4.22;;
76617;SDS011;65509;42.816;74.648;2023-06-05T02:00:13;33.92;;;5.68;;
76617;SDS011;65509;42.816;74.648;2023-06-05T02:02:43;31.30;;;4.82;;
76617;SDS011;65509;42.816;74.648;2023-06-05T02:05:11;23.88;;;4.38;;
76617;SDS011;65509;42.816;74.648;2023-06-05T02:07:41;17.95;;;3.50;;
76617;SDS011;65509;42.816;74.648;2023-06-05T02:10:07;22.85;;;3.90;;
76617;SDS011;65509;42.816;74.648;2023-06-05T02:12:33;26.10;;;4.03;;
76617;SDS011;65509;42.816;74.648;2023-06-05T02:15:00;21.33;;;3.60;;
76617;SDS011;65509;42.816;74.648;2023-06-05T02:17:25;27.52;;;4.35;;
76617;SDS011;65509;42.816;74.648;2023-06-05T02:19:51;29.67;;;4.15;;
76617;SDS011;65509;42.816;74.648;2023-06-05T02:22:17;29.70;;;4.00;;
76617;SDS011;65509;42.816;74.648;2023-06-05T02:24:43;29.55;;;3.78;;
76617;SDS011;65509;42.816;74.648;2023-06-05T02:27:08;26.65;;;4.18;;
76617;SDS011;65509;42.816;74.648;2023-06-05T02:29:36;35.75;;;4.55;;
76617;SDS011;65509;42.816;74.648;2023-06-05T02:32:02;21.85;;;3.78;;
76617;SDS011;65509;42.816;74.648;2023-06-05T02:34:28;34.03;;;4.45;;
76617;SDS011;65509;42.816;74.648;2023-06-05T02:36:53;23.77;;;3.40;;
76617;SDS011;65509;42.816;74.648;2023-06-05T02:39:19;36.17;;;4.50;;
76617;SDS011;65509;42.816;74.648;2023-06-05T02:41:44;28.17;;;4.10;;
76617;SDS011;65509;42.816;74.648;2023-06-05T02:44:10;25.42;;;3.63;;
76617;SDS011;65509;42.816;74.648;2023-06-05T02:46:36;35.63;;;5.00;;
76617;SDS011;65509;42.816;74.648;2023-06-05T02:49:03;15.00;;;3.35;;
76617;SDS011;65509;42.816;74.648;2023-06-05T02:51:29;39.67;;;5.47;;
76617;SDS011;65509;42.816;74.648;2023-06-05T02:53:55;32.28;;;4.80;;
76617;SDS011;65509;42.816;74.648;2023-06-05T02:56:20;35.40;;;4.72;;
76617;SDS011;65509;42.816;74.648;2023-06-05T02:58:47;31.05;;;4.70;;
76617;SDS011;65509;42.816;74.648;2023-06-05T03:01:12;34.15;;;4.30;;
76617;SDS011;65509;42.816;74.648;2023-06-05T03:03:46;29.20;;;3.67;;
76617;SDS011;65509;42.816;74.648;2023-06-05T03:06:13;28.08;;;3.67;;
76617;SDS011;65509;42.816;74.648;2023-06-05T03:08:42;24.98;;;3.35;;
76617;SDS011;65509;42.816;74.648;2023-06-05T03:11:08;35.47;;;4.47;;
76617;SDS011;65509;42.816;74.648;2023-06-05T03:13:33;30.83;;;3.95;;
76617;SDS011;65509;42.816;74.648;2023-06-05T03:15:59;33.15;;;4.07;;
76617;SDS011;65509;42.816;74.648;2023-06-05T03:18:28;64.30;;;6.22;;
76617;SDS011;65509;42.816;74.648;2023-06-05T03:20:54;38.03;;;4.53;;
76617;SDS011;65509;42.816;74.648;2023-06-05T03:23:26;42.83;;;4.70;;
76617;SDS011;65509;42.816;74.648;2023-06-05T03:25:55;28.65;;;3.92;;
76617;SDS011;65509;42.816;74.648;2023-06-05T03:28:21;39.95;;;4.03;;
76617;SDS011;65509;42.816;74.648;2023-06-05T03:30:47;37.10;;;4.30;;
76617;SDS011;65509;42.816;74.648;2023-06-05T03:33:13;41.67;;;4.13;;
76617;SDS011;65509;42.816;74.648;2023-06-05T03:35:40;34.97;;;4.18;;
76617;SDS011;65509;42.816;74.648;2023-06-05T03:38:06;32.13;;;3.60;;
76617;SDS011;65509;42.816;74.648;2023-06-05T03:40:32;43.20;;;4.82;;
76617;SDS011;65509;42.816;74.648;2023-06-05T03:42:57;56.33;;;5.43;;
76617;SDS011;65509;42.816;74.648;2023-06-05T03:45:23;35.83;;;4.53;;
76617;SDS011;65509;42.816;74.648;2023-06-05T03:47:51;30.35;;;3.85;;
76617;SDS011;65509;42.816;74.648;2023-06-05T03:50:17;53.53;;;5.47;;
76617;SDS011;65509;42.816;74.648;2023-06-05T03:52:43;31.92;;;3.85;;
76617;SDS011;65509;42.816;74.648;2023-06-05T03:55:08;18.38;;;2.90;;
76617;SDS011;65509;42.816;74.648;2023-06-05T03:57:35;28.90;;;3.70;;
76617;SDS011;65509;42.816;74.648;2023-06-05T04:00:03;26.10;;;3.85;;
76617;SDS011;65509;42.816;74.648;2023-06-05T04:02:29;37.35;;;4.82;;
76617;SDS011;65509;42.816;74.648;2023-06-05T04:04:54;26.13;;;4.05;;
76617;SDS011;65509;42.816;74.648;2023-06-05T04:07:20;33.50;;;4.00;;
76617;SDS011;65509;42.816;74.648;2023-06-05T04:09:45;25.92;;;3.42;;
76617;SDS011;65509;42.816;74.648;2023-06-05T04:12:11;36.05;;;4.45;;
76617;SDS011;65509;42.816;74.648;2023-06-05T04:14:36;25.15;;;3.97;;
76617;SDS011;65509;42.816;74.648;2023-06-05T04:17:03;28.95;;;4.22;;
76617;SDS011;65509;42.816;74.648;2023-06-05T04:19:29;44.60;;;4.68;;
76617;SDS011;65509;42.816;74.648;2023-06-05T04:21:54;27.05;;;3.67;;
76617;SDS011;65509;42.816;74.648;2023-06-05T04:24:20;29.10;;;4.00;;
76617;SDS011;65509;42.816;74.648;2023-06-05T04:26:45;24.08;;;3.28;;
76617;SDS011;65509;42.816;74.648;2023-06-05T04:29:12;39.35;;;4.68;;
76617;SDS011;65509;42.816;74.648;2023-06-05T04:31:45;32.40;;;4.22;;
76617;SDS011;65509;42.816;74.648;2023-06-05T04:34:12;22.75;;;3.47;;
76617;SDS011;65509;42.816;74.648;2023-06-05T04:36:38;29.45;;;3.97;;
76617;SDS011;65509;42.816;74.648;2023-06-05T04:39:03;23.20;;;3.50;;
76617;SDS011;65509;42.816;74.648;2023-06-05T04:41:30;35.83;;;4.03;;
76617;SDS011;65509;42.816;74.648;2023-06-05T04:43:57;19.27;;;2.97;;
76617;SDS011;65509;42.816;74.648;2023-06-05T04:46:26;34.22;;;3.85;;
76617;SDS011;65509;42.816;74.648;2023-06-05T04:48:51;23.52;;;3.15;;
76617;SDS011;65509;42.816;74.648;2023-06-05T04:51:20;25.00;;;3.70;;
76617;SDS011;65509;42.816;74.648;2023-06-05T04:53:46;24.25;;;3.63;;
76617;SDS011;65509;42.816;74.648;2023-06-05T04:56:15;38.30;;;4.05;;
76617;SDS011;65509;42.816;74.648;2023-06-05T04:58:41;44.45;;;5.07;;
76617;SDS011;65509;42.816;74.648;2023-06-05T05:01:07;33.25;;;4.07;;
76617;SDS011;65509;42.816;74.648;2023-06-05T05:03:33;35.20;;;4.78;;
76617;SDS011;65509;42.816;74.648;2023-06-05T05:05:59;25.02;;;3.78;;
76617;SDS011;65509;42.816;74.648;2023-06-05T05:08:24;34.03;;;4.35;;
76617;SDS011;65509;42.816;74.648;2023-06-05T05:10:50;18.80;;;2.97;;
76617;SDS011;65509;42.816;74.648;2023-06-05T05:13:15;33.65;;;4.60;;
76617;SDS011;65509;42.816;74.648;2023-06-05T05:15:41;22.15;;;3.60;;
76617;SDS011;65509;42.816;74.648;2023-06-05T05:18:06;32.10;;;4.55;;
76617;SDS011;65509;42.816;74.648;2023-06-05T05:20:32;47.28;;;6.00;;
76617;SDS011;65509;42.816;74.648;2023-06-05T05:22:59;35.45;;;4.60;;
76617;SDS011;65509;42.816;74.648;2023-06-05T05:25:25;42.80;;;5.30;;
76617;SDS011;65509;42.816;74.648;2023-06-05T05:27:51;21.20;;;3.65;;
76617;SDS011;65509;42.816;74.648;2023-06-05T05:30:17;29.30;;;4.47;;
76617;SDS011;65509;42.816;74.648;2023-06-05T05:32:42;25.02;;;4.03;;
76617;SDS011;65509;42.816;74.648;2023-06-05T05:35:08;22.60;;;3.53;;
76617;SDS011;65509;42.816;74.648;2023-06-05T05:37:33;43.80;;;5.32;;
76617;SDS011;65509;42.816;74.648;2023-06-05T05:39:59;23.23;;;3.63;;
76617;SDS011;65509;42.816;74.648;2023-06-05T05:42:24;33.00;;;4.72;;
76617;SDS011;65509;42.816;74.648;2023-06-05T05:44:50;26.88;;;4.45;;
76617;SDS011;65509;42.816;74.648;2023-06-05T05:47:15;72.28;;;6.55;;
76617;SDS011;65509;42.816;74.648;2023-06-05T05:49:41;34.15;;;4.72;;
76617;SDS011;65509;42.816;74.648;2023-06-05T05:52:06;25.13;;;3.88;;
76617;SDS011;65509;42.816;74.648;2023-06-05T05:54:31;32.17;;;5.35;;
76617;SDS011;65509;42.816;74.648;2023-06-05T05:56:57;30.75;;;4.40;;
76617;SDS011;65509;42.816;74.648;2023-06-05T05:59:23;42.22;;;5.72;;
76617;SDS011;65509;42.816;74.648;2023-06-05T06:01:48;24.73;;;4.20;;
76617;SDS011;65509;42.816;74.648;2023-06-05T06:04:17;30.35;;;4.85;;
76617;SDS011;65509;42.816;74.648;2023-06-05T06:06:43;32.25;;;4.47;;
76617;SDS011;65509;42.816;74.648;2023-06-05T06:09:09;33.33;;;5.22;;
76617;SDS011;65509;42.816;74.648;2023-06-05T06:11:37;43.00;;;5.75;;
76617;SDS011;65509;42.816;74.648;2023-06-05T06:14:03;45.85;;;6.22;;
76617;SDS011;65509;42.816;74.648;2023-06-05T06:16:29;48.25;;;6.38;;
76617;SDS011;65509;42.816;74.648;2023-06-05T06:18:54;32.67;;;4.63;;
76617;SDS011;65509;42.816;74.648;2023-06-05T06:21:20;31.50;;;4.78;;
76617;SDS011;65509;42.816;74.648;2023-06-05T06:23:46;25.60;;;4.22;;
76617;SDS011;65509;42.816;74.648;2023-06-05T06:26:12;33.08;;;5.13;;
76617;SDS011;65509;42.816;74.648;2023-06-05T06:28:40;31.58;;;5.45;;
76617;SDS011;65509;42.816;74.648;2023-06-05T06:31:05;28.13;;;4.45;;
76617;SDS011;65509;42.816;74.648;2023-06-05T06:33:31;38.25;;;5.63;;
76617;SDS011;65509;42.816;74.648;2023-06-05T06:35:57;20.83;;;3.80;;
76617;SDS011;65509;42.816;74.648;2023-06-05T06:38:24;32.30;;;5.00;;
76617;SDS011;65509;42.816;74.648;2023-06-05T06:40:55;25.27;;;4.80;;
76617;SDS011;65509;42.816;74.648;2023-06-05T06:43:20;23.70;;;4.43;;
76617;SDS011;65509;42.816;74.648;2023-06-05T06:45:46;47.17;;;7.05;;
76617;SDS011;65509;42.816;74.648;2023-06-05T06:48:11;33.63;;;4.85;;
76617;SDS011;65509;42.816;74.648;2023-06-05T06:50:37;53.95;;;6.63;;
76617;SDS011;65509;42.816;74.648;2023-06-05T06:53:02;32.30;;;4.68;;
76617;SDS011;65509;42.816;74.648;2023-06-05T06:55:30;35.60;;;6.03;;
76617;SDS011;65509;42.816;74.648;2023-06-05T06:57:59;32.30;;;5.00;;
76617;SDS011;65509;42.816;74.648;2023-06-05T07:00:24;27.23;;;5.07;;
76617;SDS011;65509;42.816;74.648;2023-06-05T07:02:52;42.50;;;6.05;;
76617;SDS011;65509;42.816;74.648;2023-06-05T07:05:18;32.40;;;5.13;;
76617;SDS011;65509;42.816;74.648;2023-06-05T07:07:45;32.78;;;5.15;;
76617;SDS011;65509;42.816;74.648;2023-06-05T07:10:10;34.85;;;6.05;;
76617;SDS011;65509;42.816;74.648;2023-06-05T07:12:36;39.85;;;6.25;;
76617;SDS011;65509;42.816;74.648;2023-06-05T07:15:01;23.80;;;4.50;;
76617;SDS011;65509;42.816;74.648;2023-06-05T07:17:28;35.20;;;6.18;;
76617;SDS011;65509;42.816;74.648;2023-06-05T07:19:55;19.17;;;4.22;;
76617;SDS011;65509;42.816;74.648;2023-06-05T07:22:21;27.95;;;5.35;;
76617;SDS011;65509;42.816;74.648;2023-06-05T07:24:46;24.95;;;4.97;;
76617;SDS011;65509;42.816;74.648;2023-06-05T07:27:14;26.20;;;5.43;;
76617;SDS011;65509;42.816;74.648;2023-06-05T07:29:40;31.15;;;5.50;;
76617;SDS011;65509;42.816;74.648;2023-06-05T07:32:05;24.40;;;4.60;;
76617;SDS011;65509;42.816;74.648;2023-06-05T07:34:32;29.17;;;4.97;;
76617;SDS011;65509;42.816;74.648;2023-06-05T07:36:59;39.92;;;6.22;;
76617;SDS011;65509;42.816;74.648;2023-06-05T07:39:24;32.03;;;5.28;;
76617;SDS011;65509;42.816;74.648;2023-06-05T07:41:50;28.85;;;4.80;;
76617;SDS011;65509;42.816;74.648;2023-06-05T07:44:16;21.95;;;4.43;;
76617;SDS011;65509;42.816;74.648;2023-06-05T07:46:42;36.45;;;5.40;;
76617;SDS011;65509;42.816;74.648;2023-06-05T07:49:08;23.95;;;4.32;;
76617;SDS011;65509;42.816;74.648;2023-06-05T07:51:34;45.05;;;6.13;;
76617;SDS011;65509;42.816;74.648;2023-06-05T07:54:05;32.08;;;5.28;;
76617;SDS011;65509;42.816;74.648;2023-06-05T07:56:31;38.50;;;6.13;;
76617;SDS011;65509;42.816;74.648;2023-06-05T07:59:01;48.42;;;6.65;;
76617;SDS011;65509;42.816;74.648;2023-06-05T08:01:28;41.80;;;6.00;;
76617;SDS011;65509;42.816;74.648;2023-06-05T08:03:54;24.45;;;4.40;;
76617;SDS011;65509;42.816;74.648;2023-06-05T08:06:20;31.25;;;5.15;;
76617;SDS011;65509;42.816;74.648;2023-06-05T08:08:46;46.10;;;6.70;;
76617;SDS011;65509;42.816;74.648;2023-06-05T08:11:11;20.60;;;4.80;;
76617;SDS011;65509;42.816;74.648;2023-06-05T08:13:37;42.08;;;6.00;;
76617;SDS011;65509;42.816;74.648;2023-06-05T08:16:03;32.88;;;5.22;;
76617;SDS011;65509;42.816;74.648;2023-06-05T08:18:29;32.28;;;5.57;;
76617;SDS011;65509;42.816;74.648;2023-06-05T08:20:54;31.38;;;4.70;;
76617;SDS011;65509;42.816;74.648;2023-06-05T08:23:20;40.42;;;9.95;;
76617;SDS011;65509;42.816;74.648;2023-06-05T08:25:45;46.53;;;8.20;;
76617;SDS011;65509;42.816;74.648;2023-06-05T08:28:13;29.65;;;5.40;;
76617;SDS011;65509;42.816;74.648;2023-06-05T08:30:39;47.15;;;6.72;;
76617;SDS011;65509;42.816;74.648;2023-06-05T08:33:05;29.23;;;5.63;;
76617;SDS011;65509;42.816;74.648;2023-06-05T08:35:30;59.67;;;6.65;;
76617;SDS011;65509;42.816;74.648;2023-06-05T08:37:56;83.60;;;7.25;;
76617;SDS011;65509;42.816;74.648;2023-06-05T08:40:22;154.85;;;12.02;;
76617;SDS011;65509;42.816;74.648;2023-06-05T08:42:48;90.50;;;7.80;;
76617;SDS011;65509;42.816;74.648;2023-06-05T08:45:13;72.05;;;7.53;;
76617;SDS011;65509;42.816;74.648;2023-06-05T08:47:38;54.97;;;6.05;;
76617;SDS011;65509;42.816;74.648;2023-06-05T08:50:12;42.47;;;4.65;;
76617;SDS011;65509;42.816;74.648;2023-06-05T08:52:37;44.28;;;4.82;;
76617;SDS011;65509;42.816;74.648;2023-06-05T08:55:03;44.97;;;5.18;;
76617;SDS011;65509;42.816;74.648;2023-06-05T08:57:30;39.05;;;5.03;;
76617;SDS011;65509;42.816;74.648;2023-06-05T08:59:55;43.05;;;4.68;;
76617;SDS011;65509;42.816;74.648;2023-06-05T09:02:21;43.38;;;4.82;;
76617;SDS011;65509;42.816;74.648;2023-06-05T09:04:47;114.43;;;10.07;;
76617;SDS011;65509;42.816;74.648;2023-06-05T09:07:12;46.28;;;5.20;;
76617;SDS011;65509;42.816;74.648;2023-06-05T09:09:38;63.80;;;7.07;;
76617;SDS011;65509;42.816;74.648;2023-06-05T09:12:07;51.53;;;5.40;;
76617;SDS011;65509;42.816;74.648;2023-06-05T09:14:34;74.93;;;7.28;;
76617;SDS011;65509;42.816;74.648;2023-06-05T09:17:00;53.72;;;5.55;;
76617;SDS011;65509;42.816;74.648;2023-06-05T09:19:35;42.17;;;5.05;;
76617;SDS011;65509;42.816;74.648;2023-06-05T09:22:01;36.17;;;4.70;;
76617;SDS011;65509;42.816;74.648;2023-06-05T09:24:26;44.08;;;4.70;;
76617;SDS011;65509;42.816;74.648;2023-06-05T09:26:55;43.33;;;5.28;;
76617;SDS011;65509;42.816;74.648;2023-06-05T09:29:24;46.15;;;4.97;;
76617;SDS011;65509;42.816;74.648;2023-06-05T09:31:51;48.97;;;5.00;;
76617;SDS011;65509;42.816;74.648;2023-06-05T09:34:23;35.92;;;4.85;;
76617;SDS011;65509;42.816;74.648;2023-06-05T09:36:49;35.20;;;4.05;;
76617;SDS011;65509;42.816;74.648;2023-06-05T09:39:15;38.90;;;4.50;;
76617;SDS011;65509;42.816;74.648;2023-06-05T09:42:07;22.38;;;4.00;;
76617;SDS011;65509;42.816;74.648;2023-06-05T09:44:33;32.88;;;6.88;;
76617;SDS011;65509;42.816;74.648;2023-06-05T09:46:59;24.25;;;4.97;;
76617;SDS011;65509;42.816;74.648;2023-06-05T09:49:28;42.85;;;6.20;;
76617;SDS011;65509;42.816;74.648;2023-06-05T09:51:55;34.65;;;4.68;;
76617;SDS011;65509;42.816;74.648;2023-06-05T09:54:20;29.70;;;4.18;;
76617;SDS011;65509;42.816;74.648;2023-06-05T09:56:47;34.55;;;4.47;;
76617;SDS011;65509;42.816;74.648;2023-06-05T09:59:22;55.60;;;5.82;;
76617;SDS011;65509;42.816;74.648;2023-06-05T10:01:49;50.03;;;5.38;;
76617;SDS011;65509;42.816;74.648;2023-06-05T10:04:19;27.45;;;4.40;;
76617;SDS011;65509;42.816;74.648;2023-06-05T10:06:45;47.90;;;5.82;;
76617;SDS011;65509;42.816;74.648;2023-06-05T10:09:14;35.00;;;4.50;;
76617;SDS011;65509;42.816;74.648;2023-06-05T10:11:39;27.75;;;4.07;;
76617;SDS011;65509;42.816;74.648;2023-06-05T10:14:15;33.33;;;4.43;;
76617;SDS011;65509;42.816;74.648;2023-06-05T10:16:40;26.88;;;4.80;;
76617;SDS011;65509;42.816;74.648;2023-06-05T10:19:06;20.13;;;3.88;;
76617;SDS011;65509;42.816;74.648;2023-06-05T10:21:32;28.23;;;4.30;;
76617;SDS011;65509;42.816;74.648;2023-06-05T10:24:02;76.63;;;9.15;;
76617;SDS011;65509;42.816;74.648;2023-06-05T10:31:48;35.75;;;5.28;;
76617;SDS011;65509;42.816;74.648;2023-06-05T10:34:29;39.50;;;5.45;;
76617;SDS011;65509;42.816;74.648;2023-06-05T10:37:09;28.00;;;4.25;;
76617;SDS011;65509;42.816;74.648;2023-06-05T10:39:38;19.52;;;3.55;;
76617;SDS011;65509;42.816;74.648;2023-06-05T10:42:04;19.42;;;3.35;;
76617;SDS011;65509;42.816;74.648;2023-06-05T10:44:48;17.33;;;3.45;;
76617;SDS011;65509;42.816;74.648;2023-06-05T10:52:45;32.45;;;5.07;;
76617;SDS011;65509;42.816;74.648;2023-06-05T10:55:10;21.83;;;3.67;;
76617;SDS011;65509;42.816;74.648;2023-06-05T11:00:21;29.83;;;5.45;;
76617;SDS011;65509;42.816;74.648;2023-06-05T11:02:47;38.20;;;7.45;;
76617;SDS011;65509;42.816;74.648;2023-06-05T11:05:12;42.97;;;11.98;;
76617;SDS011;65509;42.816;74.648;2023-06-05T11:07:38;57.03;;;7.03;;
76617;SDS011;65509;42.816;74.648;2023-06-05T11:15:14;39.90;;;7.68;;
76617;SDS011;65509;42.816;74.648;2023-06-05T11:17:43;39.10;;;9.05;;
76617;SDS011;65509;42.816;74.648;2023-06-05T11:27:58;43.72;;;6.72;;
76617;SDS011;65509;42.816;74.648;2023-06-05T11:30:25;40.38;;;6.55;;
76617;SDS011;65509;42.816;74.648;2023-06-05T11:32:53;53.60;;;6.88;;
76617;SDS011;65509;42.816;74.648;2023-06-05T11:35:26;69.70;;;8.73;;
76617;SDS011;65509;42.816;74.648;2023-06-05T11:38:10;43.70;;;6.68;;
76617;SDS011;65509;42.816;74.648;2023-06-05T11:40:36;52.65;;;5.82;;
76617;SDS011;65509;42.816;74.648;2023-06-05T11:43:05;44.35;;;5.30;;
76617;SDS011;65509;42.816;74.648;2023-06-05T11:45:38;39.22;;;4.90;;
76617;SDS011;65509;42.816;74.648;2023-06-05T11:48:05;34.75;;;5.82;;
76617;SDS011;65509;42.816;74.648;2023-06-05T11:50:33;36.78;;;5.03;;
76617;SDS011;65509;42.816;74.648;2023-06-05T11:53:03;26.20;;;4.85;;
76617;SDS011;65509;42.816;74.648;2023-06-05T11:55:28;38.13;;;8.02;;
76617;SDS011;65509;42.816;74.648;2023-06-05T11:58:08;35.03;;;9.35;;
76617;SDS011;65509;42.816;74.648;2023-06-05T12:00:34;31.50;;;7.00;;
76617;SDS011;65509;42.816;74.648;2023-06-05T12:03:02;32.60;;;4.63;;
76617;SDS011;65509;42.816;74.648;2023-06-05T12:05:28;24.00;;;4.00;;
76617;SDS011;65509;42.816;74.648;2023-06-05T12:07:53;52.97;;;6.75;;
76617;SDS011;65509;42.816;74.648;2023-06-05T12:10:32;21.98;;;4.50;;
76617;SDS011;65509;42.816;74.648;2023-06-05T12:12:57;30.60;;;5.53;;
76617;SDS011;65509;42.816;74.648;2023-06-05T12:15:23;28.85;;;4.95;;
76617;SDS011;65509;42.816;74.648;2023-06-05T12:17:49;29.92;;;5.38;;
76617;SDS011;65509;42.816;74.648;2023-06-05T12:20:19;26.88;;;4.93;;
76617;SDS011;65509;42.816;74.648;2023-06-05T12:22:45;43.85;;;6.60;;
76617;SDS011;65509;42.816;74.648;2023-06-05T12:27:42;33.92;;;5.85;;
76617;SDS011;65509;42.816;74.648;2023-06-05T12:30:08;40.00;;;13.07;;
76617;SDS011;65509;42.816;74.648;2023-06-05T12:32:34;28.65;;;5.60;;
76617;SDS011;65509;42.816;74.648;2023-06-05T12:35:00;39.35;;;7.13;;
76617;SDS011;65509;42.816;74.648;2023-06-05T12:39:53;46.83;;;6.97;;
76617;SDS011;65509;42.816;74.648;2023-06-05T12:42:18;48.45;;;5.78;;
76617;SDS011;65509;42.816;74.648;2023-06-05T12:44:44;52.50;;;6.38;;
76617;SDS011;65509;42.816;74.648;2023-06-05T12:47:09;52.85;;;5.75;;
76617;SDS011;65509;42.816;74.648;2023-06-05T12:49:34;43.90;;;5.60;;
76617;SDS011;65509;42.816;74.648;2023-06-05T12:52:09;50.25;;;6.05;;
76617;SDS011;65509;42.816;74.648;2023-06-05T12:54:35;56.95;;;6.05;;
76617;SDS011;65509;42.816;74.648;2023-06-05T12:57:01;40.42;;;5.10;;
76617;SDS011;65509;42.816;74.648;2023-06-05T12:59:27;37.67;;;4.97;;
76617;SDS011;65509;42.816;74.648;2023-06-05T13:01:52;43.53;;;5.68;;
76617;SDS011;65509;42.816;74.648;2023-06-05T13:04:18;42.03;;;5.63;;
76617;SDS011;65509;42.816;74.648;2023-06-05T13:06:43;45.30;;;5.35;;
76617;SDS011;65509;42.816;74.648;2023-06-05T13:09:09;45.65;;;5.55;;
76617;SDS011;65509;42.816;74.648;2023-06-05T13:11:35;59.10;;;6.30;;
76617;SDS011;65509;42.816;74.648;2023-06-05T13:14:00;64.60;;;6.38;;
76617;SDS011;65509;42.816;74.648;2023-06-05T13:16:26;46.03;;;6.00;;
76617;SDS011;65509;42.816;74.648;2023-06-05T13:18:51;79.68;;;7.68;;
76617;SDS011;65509;42.816;74.648;2023-06-05T13:21:17;51.58;;;7.05;;
76617;SDS011;65509;42.816;74.648;2023-06-05T13:23:42;39.08;;;4.78;;
76617;SDS011;65509;42.816;74.648;2023-06-05T13:26:08;44.03;;;4.82;;
76617;SDS011;65509;42.816;74.648;2023-06-05T13:28:33;62.90;;;5.95;;
76617;SDS011;65509;42.816;74.648;2023-06-05T13:30:59;46.50;;;5.38;;
76617;SDS011;65509;42.816;74.648;2023-06-05T13:33:26;55.17;;;6.72;;
76617;SDS011;65509;42.816;74.648;2023-06-05T13:35:52;60.45;;;7.18;;
76617;SDS011;65509;42.816;74.648;2023-06-05T13:38:19;48.60;;;5.85;;
76617;SDS011;65509;42.816;74.648;2023-06-05T13:40:45;55.63;;;6.00;;
76617;SDS011;65509;42.816;74.648;2023-06-05T13:43:14;40.17;;;5.15;;
76617;SDS011;65509;42.816;74.648;2023-06-05T13:45:39;46.53;;;5.88;;
76617;SDS011;65509;42.816;74.648;2023-06-05T13:48:05;54.88;;;6.72;;
76617;SDS011;65509;42.816;74.648;2023-06-05T13:50:30;39.70;;;6.18;;
76617;SDS011;65509;42.816;74.648;2023-06-05T13:52:56;61.15;;;8.00;;
76617;SDS011;65509;42.816;74.648;2023-06-05T13:55:21;64.43;;;7.20;;
76617;SDS011;65509;42.816;74.648;2023-06-05T13:57:47;39.88;;;5.55;;
76617;SDS011;65509;42.816;74.648;2023-06-05T14:00:12;34.50;;;5.38;;
76617;SDS011;65509;42.816;74.648;2023-06-05T14:02:40;33.63;;;6.00;;
76617;SDS011;65509;42.816;74.648;2023-06-05T14:05:06;46.08;;;6.28;;
76617;SDS011;65509;42.816;74.648;2023-06-05T14:07:33;41.75;;;6.25;;
76617;SDS011;65509;42.816;74.648;2023-06-05T14:09:59;47.03;;;6.55;;
76617;SDS011;65509;42.816;74.648;2023-06-05T14:12:24;49.80;;;6.85;;
76617;SDS011;65509;42.816;74.648;2023-06-05T14:14:50;38.65;;;5.53;;
76617;SDS011;65509;42.816;74.648;2023-06-05T14:17:16;51.88;;;6.40;;
76617;SDS011;65509;42.816;74.648;2023-06-05T14:19:41;32.53;;;5.38;;
76617;SDS011;65509;42.816;74.648;2023-06-05T14:22:12;41.03;;;5.25;;
76617;SDS011;65509;42.816;74.648;2023-06-05T14:24:38;37.30;;;5.05;;
76617;SDS011;65509;42.816;74.648;2023-06-05T14:27:04;46.88;;;5.57;;
76617;SDS011;65509;42.816;74.648;2023-06-05T14:29:30;56.53;;;13.65;;
76617;SDS011;65509;42.816;74.648;2023-06-05T14:31:55;88.65;;;24.52;;
76617;SDS011;65509;42.816;74.648;2023-06-05T14:34:21;83.00;;;16.77;;
76617;SDS011;65509;42.816;74.648;2023-06-05T14:36:46;72.78;;;14.20;;
76617;SDS011;65509;42.816;74.648;2023-06-05T14:39:16;73.53;;;13.50;;
76617;SDS011;65509;42.816;74.648;2023-06-05T14:41:42;58.83;;;11.30;;
76617;SDS011;65509;42.816;74.648;2023-06-05T14:44:07;79.55;;;12.13;;
76617;SDS011;65509;42.816;74.648;2023-06-05T14:46:33;40.95;;;8.50;;
76617;SDS011;65509;42.816;74.648;2023-06-05T14:48:59;46.60;;;8.73;;
76617;SDS011;65509;42.816;74.648;2023-06-05T14:51:24;50.95;;;8.13;;
76617;SDS011;65509;42.816;74.648;2023-06-05T14:53:49;56.20;;;8.35;;
76617;SDS011;65509;42.816;74.648;2023-06-05T14:56:15;39.80;;;8.10;;
76617;SDS011;65509;42.816;74.648;2023-06-05T14:58:40;38.45;;;7.93;;
76617;SDS011;65509;42.816;74.648;2023-06-05T15:01:06;50.00;;;8.55;;